Time;durP1;ratioP1;P1;durP2;ratioP2;P2;SDS_P1;SDS_P2;PMS_P1;PMS_P2;Temp;Humidity;BMP_temperature;BMP_pressure;BME280_temperature;BME280_humidity;BME280_pressure;Samples;Min_cycle;Max_cycle;Signal;HPM_P1;HPM_P2
2022/05/14 00:00:30;;;;;;;9.20;3.60;;;11.30;99.90;;;;;;5030583;28;20049;-64
2022/05/14 00:02:55;;;;;;;10.68;3.17;;;11.30;99.90;;;;;;5030264;28;20111;-63
2022/05/14 00:05:23;;;;;;;9.45;3.35;;;11.40;99.90;;;;;;5029425;28;20045;-66
2022/05/14 00:07:50;;;;;;;5.53;2.70;;;11.30;99.90;;;;;;5032643;28;20137;-63
2022/05/14 00:10:17;;;;;;;9.32;3.72;;;11.40;99.90;;;;;;5030124;28;20160;-63
2022/05/14 00:15:27;;;;;;;8.15;3.25;;;11.30;99.90;;;;;;5022014;28;20061;-65
2022/05/14 00:17:54;;;;;;;7.45;3.67;;;11.40;99.90;;;;;;5031307;28;20463;-64
2022/05/14 00:20:23;;;;;;;8.48;3.72;;;11.40;99.90;;;;;;5037037;28;20505;-64
2022/05/14 00:22:52;;;;;;;7.63;3.15;;;11.40;99.90;;;;;;5029853;28;20056;-64
2022/05/14 00:25:19;;;;;;;6.72;3.08;;;11.40;99.90;;;;;;5031044;28;20410;-65
2022/05/14 00:27:45;;;;;;;11.30;4.15;;;11.40;99.90;;;;;;5031788;28;20145;-63
2022/05/14 00:30:13;;;;;;;9.10;3.10;;;11.40;99.90;;;;;;5033701;28;20148;-65
2022/05/14 00:32:42;;;;;;;11.75;3.70;;;11.40;99.90;;;;;;5033010;28;20406;-64
2022/05/14 00:35:09;;;;;;;8.60;4.03;;;11.40;99.90;;;;;;5033081;28;20069;-65
2022/05/14 00:37:36;;;;;;;9.27;3.35;;;11.40;99.90;;;;;;5034204;28;20068;-66
2022/05/14 00:40:05;;;;;;;6.63;3.28;;;11.40;99.90;;;;;;5033861;28;20144;-63
2022/05/14 00:42:31;;;;;;;8.82;3.25;;;11.50;99.90;;;;;;5033713;28;20108;-65
2022/05/14 00:44:58;;;;;;;7.78;3.85;;;11.50;99.90;;;;;;5034271;28;20540;-64
2022/05/14 00:47:25;;;;;;;7.43;3.25;;;11.40;99.90;;;;;;5035294;28;20053;-64
2022/05/14 00:49:51;;;;;;;10.05;3.70;;;11.40;99.90;;;;;;5017055;28;20057;-64
2022/05/14 00:52:20;;;;;;;9.73;3.17;;;11.40;99.90;;;;;;5033487;28;20050;-65
2022/05/14 00:55:01;;;;;;;13.32;4.13;;;11.30;99.90;;;;;;5033659;28;20099;-65
2022/05/14 00:57:33;;;;;;;7.88;3.38;;;11.30;99.90;;;;;;5035812;28;20053;-64
2022/05/14 01:00:02;;;;;;;;;;;11.40;99.90;;;;;;5033474;28;20191;-65
2022/05/14 01:02:28;;;;;;;12.52;3.90;;;11.40;99.90;;;;;;5033475;28;19921;-65
2022/05/14 01:04:54;;;;;;;9.57;3.50;;;11.40;99.90;;;;;;5033609;28;20103;-64
2022/05/14 01:07:22;;;;;;;10.60;3.50;;;11.40;99.90;;;;;;5033873;28;20053;-66
2022/05/14 01:09:54;;;;;;;9.40;3.90;;;11.40;99.90;;;;;;5033165;28;20050;-65
2022/05/14 01:12:23;;;;;;;10.93;4.18;;;11.50;99.90;;;;;;5033444;28;20433;-66
2022/05/14 01:14:49;;;;;;;10.20;4.18;;;11.50;99.90;;;;;;5032996;28;20056;-64
2022/05/14 01:17:14;;;;;;;5.85;3.00;;;11.50;99.90;;;;;;5034170;28;20057;-65
2022/05/14 01:19:40;;;;;;;7.25;3.05;;;11.50;99.90;;;;;;5033655;28;20056;-64
2022/05/14 01:22:16;;;;;;;8.57;3.17;;;11.50;99.90;;;;;;5035268;28;20049;-64
2022/05/14 01:28:04;;;;;;;10.55;3.17;;;11.50;99.90;;;;;;5032742;28;20124;-66
2022/05/14 01:30:30;;;;;;;6.85;3.15;;;11.50;99.90;;;;;;5033268;28;20155;-65
2022/05/14 01:33:05;;;;;;;9.90;3.72;;;11.50;99.90;;;;;;5031736;28;20053;-64
2022/05/14 01:35:35;;;;;;;9.68;3.17;;;11.50;99.90;;;;;;5032244;28;20045;-64
2022/05/14 01:38:01;;;;;;;8.98;3.47;;;11.40;99.90;;;;;;5032395;28;20405;-65
2022/05/14 01:40:28;;;;;;;6.88;3.53;;;11.50;99.90;;;;;;5033891;28;20052;-65
2022/05/14 01:42:54;;;;;;;11.27;3.65;;;11.40;99.90;;;;;;5031983;28;20136;-66
2022/05/14 01:45:19;;;;;;;5.60;3.00;;;11.40;99.90;;;;;;5032322;28;20456;-64
2022/05/14 01:47:45;;;;;;;8.25;4.35;;;11.40;99.90;;;;;;5032296;28;20087;-65
2022/05/14 01:50:10;;;;;;;11.50;3.90;;;11.40;99.90;;;;;;5030629;28;20049;-65
2022/05/14 01:52:36;;;;;;;10.48;4.00;;;11.40;99.90;;;;;;5033061;28;20119;-65
2022/05/14 01:55:01;;;;;;;8.07;3.58;;;11.40;99.90;;;;;;5031690;28;20057;-65
2022/05/14 01:57:27;;;;;;;8.65;3.53;;;11.40;99.90;;;;;;5032328;28;20060;-65
2022/05/14 01:59:52;;;;;;;9.15;3.45;;;11.40;99.90;;;;;;5031719;28;20079;-64
2022/05/14 02:02:18;;;;;;;6.30;3.15;;;11.40;99.90;;;;;;5030304;28;20132;-64
2022/05/14 02:04:43;;;;;;;10.68;4.00;;;11.40;99.90;;;;;;5032793;28;20157;-64
2022/05/14 02:07:09;;;;;;;7.93;4.10;;;11.40;99.90;;;;;;5032183;28;20073;-65
2022/05/14 02:09:34;;;;;;;6.65;3.67;;;11.40;99.90;;;;;;5033865;28;20053;-65
2022/05/14 02:12:01;;;;;;;9.20;3.65;;;11.40;99.90;;;;;;5032853;28;20072;-65
2022/05/14 02:14:27;;;;;;;11.38;4.05;;;11.30;99.90;;;;;;5033196;28;20478;-65
2022/05/14 02:16:52;;;;;;;11.05;4.40;;;11.20;99.90;;;;;;5031594;28;20041;-65
2022/05/14 02:19:18;;;;;;;12.82;4.20;;;11.20;99.90;;;;;;5031774;28;20068;-65
2022/05/14 02:21:44;;;;;;;9.57;4.28;;;11.20;99.90;;;;;;5031197;28;20083;-65
2022/05/14 02:24:09;;;;;;;10.52;4.00;;;11.10;99.90;;;;;;5033720;28;20549;-64
2022/05/14 02:26:35;;;;;;;14.73;4.30;;;11.00;99.90;;;;;;5033430;28;20063;-65
2022/05/14 02:29:00;;;;;;;8.25;4.45;;;10.90;99.90;;;;;;5032419;28;20088;-64
2022/05/14 02:31:27;;;;;;;13.23;3.90;;;10.90;99.90;;;;;;5031560;28;20076;-65
2022/05/14 02:33:53;;;;;;;10.32;3.92;;;10.80;99.90;;;;;;5030689;28;20053;-65
2022/05/14 02:36:19;;;;;;;7.65;3.97;;;10.80;99.90;;;;;;5032328;28;20324;-65
2022/05/14 02:38:45;;;;;;;8.20;4.20;;;10.70;99.90;;;;;;5031708;28;20056;-64
2022/05/14 02:41:12;;;;;;;8.75;4.60;;;10.70;99.90;;;;;;5031929;28;20120;-65
2022/05/14 02:43:37;;;;;;;10.85;4.70;;;10.60;99.90;;;;;;5033243;28;20042;-64
2022/05/14 02:46:04;;;;;;;6.57;3.90;;;10.50;99.90;;;;;;5030010;28;20167;-64
2022/05/14 02:48:31;;;;;;;11.82;4.75;;;10.50;99.90;;;;;;5031224;28;20053;-64
2022/05/14 02:50:57;;;;;;;11.13;4.35;;;10.40;99.90;;;;;;5031777;28;20121;-65
2022/05/14 02:53:23;;;;;;;10.00;4.22;;;10.40;99.90;;;;;;5031844;28;20125;-63
2022/05/14 02:55:48;;;;;;;8.75;4.22;;;10.40;99.90;;;;;;5032618;28;20056;-64
2022/05/14 02:59:06;;;;;;;10.00;4.15;;;10.30;99.90;;;;;;5031184;28;20049;-65
2022/05/14 03:00:59;;;;;;;8.75;4.25;;;10.30;99.90;;;;;;5030604;28;20068;-65
2022/05/14 03:03:26;;;;;;;11.27;4.35;;;10.20;99.90;;;;;;5030512;28;20061;-65
2022/05/14 03:05:51;;;;;;;10.63;4.50;;;10.20;99.90;;;;;;5031290;28;20077;-66
2022/05/14 03:08:17;;;;;;;8.07;4.82;;;10.10;99.90;;;;;;5031930;28;20085;-64
2022/05/14 03:10:42;;;;;;;13.40;4.88;;;10.10;99.90;;;;;;5030262;28;20072;-65
2022/05/14 03:13:08;;;;;;;9.38;4.60;;;10.10;99.90;;;;;;5032083;28;20050;-64
2022/05/14 03:15:34;;;;;;;10.38;4.40;;;10.00;99.90;;;;;;5033040;28;20064;-64
2022/05/14 03:18:00;;;;;;;7.82;4.28;;;10.00;99.90;;;;;;5032266;28;20038;-64
2022/05/14 03:20:25;;;;;;;11.48;4.78;;;10.00;99.90;;;;;;5031473;28;20132;-64
2022/05/14 03:22:52;;;;;;;10.20;4.25;;;9.90;99.90;;;;;;5031617;28;20060;-64
2022/05/14 03:25:17;;;;;;;9.27;4.80;;;9.90;99.90;;;;;;5030556;28;20129;-63
2022/05/14 03:27:43;;;;;;;14.23;5.07;;;9.90;99.90;;;;;;5032005;28;20194;-65
2022/05/14 03:30:09;;;;;;;6.72;4.72;;;9.80;99.90;;;;;;5031310;28;20412;-64
2022/05/14 03:32:35;;;;;;;11.63;5.65;;;9.70;99.90;;;;;;5031567;28;20120;-64
2022/05/14 03:35:02;;;;;;;13.57;5.47;;;9.70;99.90;;;;;;5032334;28;20537;-64
2022/05/14 03:37:27;;;;;;;13.50;4.68;;;9.70;99.90;;;;;;5031721;28;20049;-65
2022/05/14 03:39:53;;;;;;;12.82;5.53;;;9.70;99.90;;;;;;5030029;28;20455;-64
2022/05/14 03:42:19;;;;;;;12.57;5.13;;;9.60;99.90;;;;;;5030030;28;20041;-64
2022/05/14 03:44:44;;;;;;;12.35;5.35;;;9.60;99.90;;;;;;5031379;28;20129;-65
2022/05/14 03:47:10;;;;;;;11.65;4.88;;;9.60;99.90;;;;;;5030361;28;20053;-64
2022/05/14 03:49:35;;;;;;;13.60;4.90;;;9.60;99.90;;;;;;5032411;28;20053;-64
2022/05/14 03:52:01;;;;;;;12.90;4.80;;;9.60;99.90;;;;;;5014708;28;20068;-64
2022/05/14 03:54:28;;;;;;;12.73;5.50;;;9.50;99.90;;;;;;5031047;28;20077;-63
2022/05/14 03:56:53;;;;;;;15.13;6.22;;;9.50;99.90;;;;;;5032002;28;20053;-65
2022/05/14 03:59:19;;;;;;;16.65;5.85;;;9.50;99.90;;;;;;5029909;28;20038;-64
2022/05/14 04:01:44;;;;;;;17.27;6.18;;;9.50;99.90;;;;;;5029851;28;20045;-65
2022/05/14 04:04:10;;;;;;;12.38;6.47;;;9.50;99.90;;;;;;5029350;28;20120;-64
2022/05/14 04:06:35;;;;;;;14.13;5.32;;;9.60;99.90;;;;;;5029728;28;20049;-64
2022/05/14 04:09:02;;;;;;;11.13;5.20;;;9.60;99.90;;;;;;5031924;28;20393;-64
2022/05/14 04:11:28;;;;;;;13.25;6.93;;;9.60;99.90;;;;;;5032336;28;20053;-65
2022/05/14 04:13:53;;;;;;;18.27;6.70;;;9.60;99.90;;;;;;5029757;28;20107;-63
2022/05/14 04:16:19;;;;;;;16.02;7.10;;;9.60;99.90;;;;;;5030734;28;20058;-64
2022/05/14 04:18:44;;;;;;;16.65;7.03;;;9.70;99.90;;;;;;5030295;28;20069;-64
2022/05/14 04:21:10;;;;;;;15.20;7.00;;;9.80;99.90;;;;;;5031057;28;20102;-64
2022/05/14 04:23:36;;;;;;;13.95;6.53;;;9.80;99.90;;;;;;5030683;28;20501;-64
2022/05/14 04:26:02;;;;;;;14.60;6.80;;;9.90;99.90;;;;;;5030032;28;20045;-63
2022/05/14 04:28:28;;;;;;;16.73;6.53;;;9.90;99.90;;;;;;5029332;28;20057;-64
2022/05/14 04:30:54;;;;;;;14.45;6.25;;;10.00;99.90;;;;;;5030413;28;20107;-64
2022/05/14 04:33:20;;;;;;;14.73;6.75;;;10.00;99.90;;;;;;5030231;28;20478;-64
2022/05/14 04:35:46;;;;;;;14.07;6.85;;;10.00;99.90;;;;;;5029715;28;20053;-65
2022/05/14 04:38:13;;;;;;;18.05;7.30;;;10.10;99.90;;;;;;5031691;28;20139;-64
2022/05/14 04:40:39;;;;;;;19.05;7.13;;;10.20;99.90;;;;;;5028484;28;20096;-65
2022/05/14 04:43:06;;;;;;;13.85;6.47;;;10.20;99.90;;;;;;5030789;28;20053;-65
2022/05/14 04:45:32;;;;;;;15.10;6.72;;;10.20;99.90;;;;;;5031416;28;20485;-64
2022/05/14 04:47:57;;;;;;;14.57;6.35;;;10.30;99.90;;;;;;5030372;28;20076;-64
2022/05/14 04:50:23;;;;;;;18.27;7.18;;;10.40;99.90;;;;;;5032487;28;20459;-64
2022/05/14 04:52:48;;;;;;;19.48;7.32;;;10.50;99.90;;;;;;5028877;28;20049;-64
2022/05/14 04:55:14;;;;;;;17.33;6.55;;;10.60;99.90;;;;;;5028116;28;20060;-66
2022/05/14 04:57:43;;;;;;;16.75;7.40;;;10.70;99.90;;;;;;5030196;28;20045;-65
2022/05/14 05:00:10;;;;;;;15.52;6.75;;;10.70;99.90;;;;;;5028583;28;20056;-64
2022/05/14 05:05:19;;;;;;;15.35;6.93;;;10.90;99.90;;;;;;5030327;28;20409;-65
2022/05/14 05:07:46;;;;;;;19.58;7.53;;;10.90;99.90;;;;;;5029902;28;20053;-66
2022/05/14 05:10:12;;;;;;;17.60;8.13;;;11.00;99.90;;;;;;5029984;28;20049;-65
2022/05/14 05:12:37;;;;;;;20.38;7.68;;;11.10;99.90;;;;;;5030845;28;20076;-65
2022/05/14 05:15:03;;;;;;;22.30;7.70;;;11.20;99.90;;;;;;5030843;28;20476;-65
2022/05/14 05:17:29;;;;;;;15.68;7.90;;;11.20;99.90;;;;;;5033987;28;20069;-64
2022/05/14 05:19:54;;;;;;;23.63;8.43;;;11.30;99.90;;;;;;5033750;28;20061;-65
2022/05/14 05:22:20;;;;;;;23.75;7.53;;;11.40;99.90;;;;;;5033412;28;20045;-65
2022/05/14 05:24:46;;;;;;;15.45;7.20;;;11.50;99.90;;;;;;5031423;28;20141;-65
2022/05/14 05:27:11;;;;;;;22.58;8.02;;;11.60;99.90;;;;;;5034201;28;20121;-65
2022/05/14 05:29:37;;;;;;;24.45;8.45;;;11.70;99.90;;;;;;5032521;28;20107;-64
2022/05/14 05:32:03;;;;;;;20.25;7.63;;;11.90;99.90;;;;;;5031349;28;20049;-65
2022/05/14 05:34:28;;;;;;;22.42;8.27;;;12.60;99.90;;;;;;5029699;28;20116;-65
2022/05/14 05:36:54;;;;;;;17.48;7.53;;;13.50;99.90;;;;;;5034690;28;20057;-65
2022/05/14 05:39:19;;;;;;;20.65;8.13;;;14.30;99.90;;;;;;5031620;28;20120;-65
2022/05/14 05:41:45;;;;;;;24.98;8.88;;;15.10;99.90;;;;;;5033980;28;20489;-65
2022/05/14 05:44:11;;;;;;;22.38;7.55;;;15.70;99.90;;;;;;5033177;28;20053;-67
2022/05/14 05:46:37;;;;;;;19.00;8.02;;;16.00;99.90;;;;;;5031608;28;20084;-64
2022/05/14 05:49:04;;;;;;;20.60;7.80;;;16.40;99.90;;;;;;5030334;28;20052;-66
2022/05/14 05:51:30;;;;;;;16.98;7.70;;;16.80;99.90;;;;;;5032362;28;20403;-66
2022/05/14 05:56:47;;;;;;;16.10;7.32;;;17.50;99.90;;;;;;5025964;28;20049;-66
2022/05/14 05:59:16;;;;;;;22.27;7.82;;;18.00;99.90;;;;;;5026633;28;20095;-66
2022/05/14 06:01:43;;;;;;;18.40;7.30;;;18.20;99.90;;;;;;5033427;28;20088;-66
2022/05/14 06:04:09;;;;;;;20.48;7.30;;;18.40;99.90;;;;;;5033712;28;20089;-65
2022/05/14 06:06:36;;;;;;;14.95;6.75;;;18.50;99.90;;;;;;5015854;28;20410;-66
2022/05/14 06:09:02;;;;;;;17.15;7.18;;;18.70;99.90;;;;;;5024776;28;20490;-65
2022/05/14 06:11:30;;;;;;;20.70;7.03;;;18.60;99.90;;;;;;5032368;28;20095;-67
2022/05/14 06:13:56;;;;;;;19.08;6.88;;;18.80;99.90;;;;;;5027141;28;20103;-65
2022/05/14 06:16:22;;;;;;;18.73;7.07;;;18.90;99.90;;;;;;5032347;28;20128;-68
2022/05/14 06:18:47;;;;;;;16.42;6.45;;;18.90;99.90;;;;;;5034993;28;20042;-66
2022/05/14 06:21:13;;;;;;;19.70;7.25;;;18.80;99.90;;;;;;5032238;28;20046;-66
2022/05/14 06:23:39;;;;;;;16.25;7.20;;;18.20;99.90;;;;;;5032501;28;20111;-67
2022/05/14 06:26:05;;;;;;;21.08;7.95;;;17.60;99.90;;;;;;5032118;28;20053;-66
2022/05/14 06:28:31;;;;;;;16.25;6.15;;;17.20;99.90;;;;;;5033153;28;20125;-67
2022/05/14 06:30:57;;;;;;;17.13;6.07;;;16.90;99.90;;;;;;5030898;28;20135;-65
2022/05/14 06:33:23;;;;;;;19.17;7.07;;;16.50;99.90;;;;;;5034570;28;20394;-64
2022/05/14 06:35:48;;;;;;;17.95;5.55;;;16.40;99.90;;;;;;5033209;28;20057;-65
2022/05/14 06:38:14;;;;;;;16.80;5.97;;;16.20;99.90;;;;;;5031220;28;20391;-65
2022/05/14 06:40:40;;;;;;;13.95;5.43;;;16.10;99.90;;;;;;5031481;28;20089;-66
2022/05/14 06:43:06;;;;;;;17.83;5.60;;;16.20;99.90;;;;;;5031081;28;20049;-64
2022/05/14 06:45:32;;;;;;;21.48;6.35;;;16.30;99.90;;;;;;5030764;28;20103;-66
2022/05/14 06:47:58;;;;;;;17.83;6.18;;;16.30;99.90;;;;;;5033014;28;20053;-66
2022/05/14 06:50:26;;;;;;;19.58;6.30;;;16.30;99.90;;;;;;5032173;28;20045;-66
2022/05/14 06:53:01;;;;;;;17.65;6.40;;;16.10;99.90;;;;;;5032420;28;20084;-65
2022/05/14 06:55:32;;;;;;;21.67;7.38;;;16.00;99.90;;;;;;5032856;28;20501;-66
2022/05/14 06:57:58;;;;;;;18.10;5.60;;;16.00;99.90;;;;;;5033303;28;20466;-65
2022/05/14 07:00:24;;;;;;;17.50;5.18;;;16.00;99.90;;;;;;5033181;28;20379;-62
2022/05/14 07:02:50;;;;;;;23.35;5.82;;;16.20;99.90;;;;;;5031731;28;20061;-63
2022/05/14 07:08:01;;;;;;;18.15;6.00;;;16.60;99.90;;;;;;5012324;28;20394;-65
2022/05/14 07:10:29;;;;;;;20.15;5.30;;;16.70;99.90;;;;;;5013888;28;20057;-63
2022/05/14 07:12:56;;;;;;;19.75;6.30;;;16.80;99.90;;;;;;5012289;28;20093;-63
2022/05/14 07:15:22;;;;;;;13.77;5.35;;;16.90;99.90;;;;;;5013677;28;20514;-63
2022/05/14 07:17:48;;;;;;;21.52;6.40;;;17.00;99.90;;;;;;5011973;28;20053;-63
2022/05/14 07:20:13;;;;;;;18.30;5.70;;;17.10;99.90;;;;;;5012203;28;20366;-64
2022/05/14 07:22:39;;;;;;;17.65;6.10;;;17.10;99.90;;;;;;5032457;28;20433;-64
2022/05/14 07:25:05;;;;;;;20.08;5.72;;;17.30;99.90;;;;;;5033529;28;20131;-64
2022/05/14 07:27:31;;;;;;;17.90;5.03;;;17.30;99.90;;;;;;5032993;28;20096;-63
2022/05/14 07:29:57;;;;;;;19.55;5.75;;;17.40;99.90;;;;;;5033043;28;20053;-63
2022/05/14 07:32:22;;;;;;;24.63;5.68;;;17.40;99.90;;;;;;5031050;28;20042;-63
2022/05/14 07:34:48;;;;;;;19.25;5.28;;;17.50;99.90;;;;;;5032196;28;20152;-63
2022/05/14 07:37:19;;;;;;;15.65;4.95;;;17.60;99.90;;;;;;5030401;28;20058;-64
2022/05/14 07:39:57;;;;;;;17.45;5.13;;;17.70;99.90;;;;;;5030762;28;20093;-65
2022/05/14 07:42:28;;;;;;;16.70;4.63;;;17.70;99.90;;;;;;5031993;28;20120;-64
2022/05/14 07:44:57;;;;;;;19.83;4.70;;;17.60;99.90;;;;;;5032919;28;20093;-64
2022/05/14 07:47:23;;;;;;;16.83;5.15;;;17.60;99.90;;;;;;5032412;28;20148;-65
2022/05/14 07:49:50;;;;;;;14.00;4.30;;;17.70;99.90;;;;;;5032290;28;20549;-64
2022/05/14 07:52:17;;;;;;;16.55;4.57;;;17.80;99.90;;;;;;5015596;28;20046;-63
2022/05/14 07:54:43;;;;;;;15.93;4.32;;;17.90;99.90;;;;;;5032266;28;20083;-64
2022/05/14 07:57:09;;;;;;;15.90;4.63;;;17.90;99.90;;;;;;5031727;28;20490;-65
2022/05/14 07:59:35;;;;;;;18.75;4.85;;;17.90;99.90;;;;;;5031658;28;20045;-65
2022/05/14 08:02:02;;;;;;;12.95;4.13;;;18.00;99.90;;;;;;5031406;28;20421;-65
2022/05/14 08:04:28;;;;;;;17.88;4.55;;;18.00;99.90;;;;;;5032886;28;20056;-64
2022/05/14 08:06:53;;;;;;;14.20;3.92;;;18.10;99.90;;;;;;5030907;28;20049;-66
2022/05/14 08:09:19;;;;;;;16.75;4.53;;;18.10;99.90;;;;;;5031874;28;20132;-65
2022/05/14 08:11:44;;;;;;;16.45;3.92;;;18.10;99.90;;;;;;5033104;28;20055;-65
2022/05/14 08:14:10;;;;;;;16.02;4.18;;;18.20;99.90;;;;;;5032376;28;20195;-65
2022/05/14 08:16:36;;;;;;;20.20;5.05;;;18.10;99.90;;;;;;5032651;28;20060;-64
2022/05/14 08:19:01;;;;;;;15.60;4.28;;;18.00;99.90;;;;;;5031706;28;20049;-64
2022/05/14 08:27:07;;;;;;;18.25;4.93;;;18.40;99.90;;;;;;5031828;28;20054;-67
2022/05/14 08:29:34;;;;;;;17.13;5.25;;;18.40;99.90;;;;;;4998931;28;20548;-65
2022/05/14 08:32:00;;;;;;;17.60;5.72;;;18.20;99.90;;;;;;5012856;28;20066;-66
2022/05/14 08:34:25;;;;;;;15.05;4.90;;;18.20;99.90;;;;;;5029772;28;20045;-65
2022/05/14 08:36:51;;;;;;;15.02;4.53;;;18.40;99.90;;;;;;5029359;28;20053;-68
2022/05/14 08:39:17;;;;;;;13.70;4.47;;;18.50;99.90;;;;;;5012650;28;20478;-65
2022/05/14 08:41:47;;;;;;;16.50;5.20;;;18.60;99.90;;;;;;5029807;28;20067;-64
2022/05/14 08:44:17;;;;;;;15.57;4.82;;;18.80;99.90;;;;;;5005851;28;20169;-65
2022/05/14 08:46:44;;;;;;;18.65;5.40;;;19.10;99.90;;;;;;5012539;28;20061;-64
2022/05/14 08:49:19;;;;;;;13.88;4.53;;;19.20;99.90;;;;;;5025953;28;20418;-65
2022/05/14 08:51:50;;;;;;;13.88;3.90;;;19.30;99.90;;;;;;5033475;28;20053;-65
2022/05/14 08:54:17;;;;;;;15.65;5.07;;;19.50;99.90;;;;;;5030668;28;20050;-64
2022/05/14 08:57:11;;;;;;;10.85;4.25;;;19.70;99.90;;;;;;5033267;28;20080;-66
2022/05/14 09:00:02;;;;;;;18.58;4.40;;;19.80;99.90;;;;;;5033123;28;20049;-65
2022/05/14 09:02:32;;;;;;;12.93;4.47;;;19.90;99.90;;;;;;5033931;28;20088;-65
2022/05/14 09:05:05;;;;;;;13.40;3.88;;;20.10;99.90;;;;;;5032846;28;20045;-64
2022/05/14 09:07:31;;;;;;;14.70;4.57;;;19.90;98.60;;;;;;5032253;28;20054;-65
2022/05/14 09:09:58;;;;;;;13.93;4.22;;;19.70;99.90;;;;;;5016485;28;20057;-64
2022/05/14 09:12:30;;;;;;;13.00;4.22;;;19.40;99.90;;;;;;5033193;28;20060;-64
2022/05/14 09:14:58;;;;;;;;;;;19.20;99.90;;;;;;5033372;28;20053;-67
2022/05/14 09:17:29;;;;;;;21.52;5.03;;;19.10;99.90;;;;;;5034428;28;20381;-66
2022/05/14 09:19:55;;;;;;;17.17;4.68;;;19.20;99.90;;;;;;5035560;28;20391;-65
2022/05/14 09:22:27;;;;;;;14.68;4.15;;;19.20;99.90;;;;;;5031496;28;20053;-63
2022/05/14 09:25:00;;;;;;;14.90;4.38;;;19.20;99.90;;;;;;5034035;28;20397;-63
2022/05/14 09:27:42;;;;;;;17.45;4.95;;;19.30;99.90;;;;;;5033615;28;20477;-63
2022/05/14 09:30:12;;;;;;;13.00;4.00;;;19.50;99.90;;;;;;5033877;28;20481;-64
2022/05/14 09:32:44;;;;;;;17.08;4.65;;;19.60;99.90;;;;;;5030363;28;20061;-64
2022/05/14 09:35:32;;;;;;;18.38;5.25;;;19.50;99.90;;;;;;5033471;28;20045;-63
2022/05/14 09:38:18;;;;;;;15.48;4.45;;;19.50;99.90;;;;;;5032079;28;20049;-63
2022/05/14 09:40:44;;;;;;;11.95;4.35;;;19.30;99.90;;;;;;5033947;28;20504;-63
2022/05/14 09:43:16;;;;;;;18.63;4.97;;;19.20;99.90;;;;;;5035163;28;20085;-63
2022/05/14 09:46:00;;;;;;;13.80;4.32;;;19.20;99.90;;;;;;5034384;28;20525;-64
2022/05/14 09:48:46;;;;;;;15.38;4.25;;;19.40;99.90;;;;;;5034747;28;20446;-63
2022/05/14 09:51:12;;;;;;;15.35;4.47;;;19.80;99.90;;;;;;5030196;28;20382;-64
2022/05/14 09:53:46;;;;;;;23.83;4.80;;;20.10;98.00;;;;;;5033396;28;20119;-63
2022/05/14 09:56:55;;;;;;;12.82;4.28;;;20.30;91.00;;;;;;5035288;28;20363;-64
2022/05/14 09:59:40;;;;;;;8.85;4.18;;;20.40;75.60;;;;;;5032833;28;20525;-63
2022/05/14 10:02:26;;;;;;;16.45;4.15;;;20.40;93.30;;;;;;5030780;28;20068;-64
2022/05/14 10:05:19;;;;;;;14.40;4.50;;;20.30;87.00;;;;;;5033039;28;20502;-65
2022/05/14 10:07:52;;;;;;;14.80;4.43;;;20.10;90.40;;;;;;5033163;28;20059;-62
2022/05/14 10:10:45;;;;;;;15.25;4.50;;;19.90;95.60;;;;;;5013638;28;20054;-65
2022/05/14 10:13:44;;;;;;;13.60;3.90;;;19.80;95.10;;;;;;5015001;28;20061;-64
2022/05/14 10:16:19;;;;;;;9.88;3.20;;;19.70;81.00;;;;;;5011568;28;20410;-64
2022/05/14 10:19:07;;;;;;;12.13;3.92;;;19.60;91.90;;;;;;5031270;28;20135;-64
2022/05/14 10:21:49;;;;;;;14.20;4.10;;;19.70;89.70;;;;;;5034217;28;20125;-64
2022/05/14 10:27:53;;;;;;;12.88;3.47;;;19.70;86.30;;;;;;5032610;28;20045;-63
2022/05/14 10:30:34;;;;;;;11.30;3.55;;;20.00;90.60;;;;;;5028229;28;20057;-64
2022/05/14 10:33:03;;;;;;;11.02;3.45;;;20.10;81.80;;;;;;5029776;28;20045;-63
2022/05/14 10:35:47;;;;;;;10.30;3.60;;;20.00;75.90;;;;;;5032926;28;20053;-64
2022/05/14 10:38:34;;;;;;;13.27;4.00;;;19.90;71.20;;;;;;5033023;28;20494;-63
2022/05/14 10:41:05;;;;;;;11.38;3.63;;;19.70;74.60;;;;;;5034299;28;20061;-64
2022/05/14 10:43:54;;;;;;;16.00;4.43;;;19.70;83.60;;;;;;5032976;28;20065;-65
2022/05/14 10:46:23;;;;;;;14.55;4.60;;;20.00;80.00;;;;;;5030133;28;20049;-64
2022/05/14 10:48:57;;;;;;;18.50;4.10;;;20.20;79.60;;;;;;5033205;28;20072;-64
2022/05/14 10:51:27;;;;;;;13.02;4.68;;;20.70;83.00;;;;;;5034128;28;20076;-65
2022/05/14 10:53:53;;;;;;;12.27;3.72;;;21.00;74.10;;;;;;5032570;28;20057;-64
2022/05/14 10:56:29;;;;;;;24.05;5.22;;;21.20;72.30;;;;;;5033926;28;20090;-63
2022/05/14 10:59:11;;;;;;;12.02;4.07;;;21.40;68.30;;;;;;5028660;28;20132;-63
2022/05/14 11:01:52;;;;;;;12.02;3.72;;;21.60;63.90;;;;;;5031910;28;20056;-63
2022/05/14 11:04:25;;;;;;;11.50;3.75;;;21.90;68.60;;;;;;5033549;28;20120;-65
2022/05/14 11:07:03;;;;;;;11.85;3.83;;;22.10;65.40;;;;;;5033076;28;20489;-63
2022/05/14 11:09:47;;;;;;;16.00;3.92;;;22.20;62.60;;;;;;5032436;28;20371;-63
2022/05/14 11:12:18;;;;;;;15.55;4.00;;;22.10;61.00;;;;;;5033021;28;20049;-65
2022/05/14 11:14:57;;;;;;;13.98;4.15;;;21.90;63.30;;;;;;5031472;28;20060;-63
2022/05/14 11:17:26;;;;;;;14.23;4.20;;;21.80;60.90;;;;;;5032251;28;20509;-63
2022/05/14 11:20:16;;;;;;;14.95;4.72;;;21.80;62.10;;;;;;5032377;28;20398;-65
2022/05/14 11:22:48;;;;;;;11.85;4.20;;;21.80;62.50;;;;;;5032313;28;20064;-64
2022/05/14 11:25:24;;;;;;;12.43;4.00;;;21.60;62.40;;;;;;5032541;28;20111;-63
2022/05/14 11:28:07;;;;;;;13.10;3.88;;;21.40;62.70;;;;;;5031534;28;20436;-64
2022/05/14 11:31:08;;;;;;;11.05;4.20;;;21.10;61.10;;;;;;5032100;28;20378;-62
2022/05/14 11:33:34;;;;;;;14.48;3.78;;;20.80;62.30;;;;;;5030691;28;20494;-63
2022/05/14 11:36:16;;;;;;;12.45;3.78;;;20.70;64.50;;;;;;5029766;28;20425;-64
2022/05/14 11:38:44;;;;;;;14.82;3.60;;;20.60;64.40;;;;;;5031358;28;20053;-62
2022/05/14 11:41:30;;;;;;;13.38;4.35;;;20.60;64.80;;;;;;5031526;28;20057;-65
2022/05/14 11:43:56;;;;;;;12.95;4.35;;;20.50;64.00;;;;;;5032070;28;20379;-63
2022/05/14 11:46:40;;;;;;;10.35;3.72;;;20.50;65.80;;;;;;5029978;28;20127;-63
2022/05/14 11:49:11;;;;;;;10.50;3.67;;;20.50;64.40;;;;;;5013922;28;20136;-65
2022/05/14 11:52:08;;;;;;;12.32;4.05;;;20.50;65.70;;;;;;5032234;28;20124;-63
2022/05/14 11:54:58;;;;;;;12.15;3.90;;;20.40;65.20;;;;;;5011905;28;20058;-63
2022/05/14 11:57:40;;;;;;;11.55;3.85;;;20.40;66.20;;;;;;5011824;28;20061;-64
2022/05/14 12:00:18;;;;;;;14.35;4.00;;;20.40;66.80;;;;;;5013919;28;20050;-65
2022/05/14 12:02:47;;;;;;;14.95;3.90;;;20.30;68.30;;;;;;5030073;28;20041;-64
2022/05/14 12:05:35;;;;;;;18.40;4.10;;;20.50;68.70;;;;;;5033606;28;20057;-63
2022/05/14 12:08:25;;;;;;;15.73;4.00;;;20.70;67.60;;;;;;5030092;28;20494;-63
2022/05/14 12:11:21;;;;;;;15.85;4.38;;;20.80;61.90;;;;;;5031831;28;20053;-65
2022/05/14 12:14:11;;;;;;;13.35;3.65;;;20.80;63.10;;;;;;5032831;28;20049;-64
2022/05/14 12:16:40;;;;;;;13.27;3.63;;;20.70;62.80;;;;;;5030836;28;20080;-64
2022/05/14 12:19:13;;;;;;;10.98;3.80;;;20.50;64.40;;;;;;5032015;28;20405;-65
2022/05/14 12:21:39;;;;;;;16.48;4.20;;;20.30;64.80;;;;;;5030184;28;20098;-63
2022/05/14 12:24:16;;;;;;;13.43;3.85;;;20.20;65.40;;;;;;5035016;28;20527;-65
2022/05/14 12:26:43;;;;;;;11.82;3.60;;;20.20;65.60;;;;;;5035538;28;20061;-64
2022/05/14 12:29:27;;;;;;;11.85;3.92;;;20.10;65.70;;;;;;5035647;28;20132;-63
2022/05/14 12:34:42;;;;;;;10.93;3.30;;;20.30;64.30;;;;;;5036819;28;20057;-67
2022/05/14 12:37:27;;;;;;;12.30;3.38;;;20.50;64.50;;;;;;5033510;28;20111;-67
2022/05/14 12:39:58;;;;;;;12.13;3.67;;;20.60;64.20;;;;;;5033415;28;20045;-65
2022/05/14 12:42:40;;;;;;;15.20;3.80;;;20.80;64.00;;;;;;5035023;28;20053;-65
2022/05/14 12:45:08;;;;;;;13.38;3.78;;;21.00;61.90;;;;;;5033634;28;20486;-64
2022/05/14 12:47:34;;;;;;;12.45;3.50;;;21.10;62.80;;;;;;5035788;28;20506;-64
2022/05/14 12:50:01;;;;;;;13.23;4.28;;;21.00;62.40;;;;;;5035938;28;20053;-63
2022/05/14 12:52:32;;;;;;;15.13;3.55;;;20.90;62.40;;;;;;5032931;28;20049;-63
2022/05/14 12:55:14;;;;;;;17.50;4.55;;;20.90;62.10;;;;;;5024482;28;20410;-64
2022/05/14 12:57:43;;;;;;;14.15;3.60;;;20.90;61.10;;;;;;5035014;28;20057;-63
2022/05/14 13:00:11;;;;;;;13.57;3.67;;;21.00;61.50;;;;;;5034605;28;20063;-64
2022/05/14 13:02:45;;;;;;;15.45;3.80;;;21.20;61.10;;;;;;5034487;28;20057;-63
2022/05/14 13:05:17;;;;;;;11.38;3.72;;;21.30;60.30;;;;;;5021885;28;20099;-65
2022/05/14 13:07:54;;;;;;;12.82;3.97;;;21.60;60.20;;;;;;5032331;28;20068;-64
2022/05/14 13:10:23;;;;;;;15.65;3.90;;;21.70;58.90;;;;;;5035861;28;20061;-64
2022/05/14 13:13:01;;;;;;;16.08;4.30;;;21.60;59.20;;;;;;5035169;28;20516;-63
2022/05/14 13:15:34;;;;;;;12.35;3.72;;;21.80;59.00;;;;;;5034510;28;20061;-63
2022/05/14 13:18:32;;;;;;;11.07;3.50;;;21.70;58.90;;;;;;5032484;28;20490;-64
2022/05/14 13:21:04;;;;;;;11.88;3.95;;;21.80;58.10;;;;;;5020551;28;20107;-65